sensor_id;sensor_type;location;lat;lon;timestamp;temperature;humidity
12434;DHT22;6281;49.038;8.372;2024-01-30T00:02:06;3.10;99.90
12434;DHT22;6281;49.038;8.372;2024-01-30T00:04:33;3.10;99.90
12434;DHT22;6281;49.038;8.372;2024-01-30T00:07:01;3.00;99.90
12434;DHT22;6281;49.038;8.372;2024-01-30T00:09:28;3.00;99.90
12434;DHT22;6281;49.038;8.372;2024-01-30T00:11:55;3.10;99.90
12434;DHT22;6281;49.038;8.372;2024-01-30T00:14:22;3.00;99.90
12434;DHT22;6281;49.038;8.372;2024-01-30T00:16:51;3.00;99.90
12434;DHT22;6281;49.038;8.372;2024-01-30T00:19:18;2.90;99.90
12434;DHT22;6281;49.038;8.372;2024-01-30T00:21:44;2.80;99.90
12434;DHT22;6281;49.038;8.372;2024-01-30T00:24:13;3.00;99.90
12434;DHT22;6281;49.038;8.372;2024-01-30T00:26:40;2.90;99.90
12434;DHT22;6281;49.038;8.372;2024-01-30T00:29:07;2.90;99.90
12434;DHT22;6281;49.038;8.372;2024-01-30T00:31:34;3.00;99.90
12434;DHT22;6281;49.038;8.372;2024-01-30T00:34:01;3.00;99.90
12434;DHT22;6281;49.038;8.372;2024-01-30T00:36:28;2.90;99.90
12434;DHT22;6281;49.038;8.372;2024-01-30T00:38:55;3.00;99.90
12434;DHT22;6281;49.038;8.372;2024-01-30T00:41:24;3.10;99.90
12434;DHT22;6281;49.038;8.372;2024-01-30T00:43:51;3.10;99.90
12434;DHT22;6281;49.038;8.372;2024-01-30T00:46:17;3.10;99.90
12434;DHT22;6281;49.038;8.372;2024-01-30T00:48:44;3.10;99.90
12434;DHT22;6281;49.038;8.372;2024-01-30T00:51:11;3.10;99.90
12434;DHT22;6281;49.038;8.372;2024-01-30T00:53:38;3.00;99.90
12434;DHT22;6281;49.038;8.372;2024-01-30T00:56:07;3.10;99.90
12434;DHT22;6281;49.038;8.372;2024-01-30T00:58:35;2.90;99.90
12434;DHT22;6281;49.038;8.372;2024-01-30T01:01:03;2.80;99.90
12434;DHT22;6281;49.038;8.372;2024-01-30T01:03:30;2.70;99.90
12434;DHT22;6281;49.038;8.372;2024-01-30T01:05:56;2.60;99.90
12434;DHT22;6281;49.038;8.372;2024-01-30T01:08:23;2.60;99.90
12434;DHT22;6281;49.038;8.372;2024-01-30T01:10:50;2.70;99.90
12434;DHT22;6281;49.038;8.372;2024-01-30T01:13:17;2.70;99.90
12434;DHT22;6281;49.038;8.372;2024-01-30T01:15:46;2.70;99.90
12434;DHT22;6281;49.038;8.372;2024-01-30T01:18:13;2.70;99.90
12434;DHT22;6281;49.038;8.372;2024-01-30T01:20:40;2.80;99.90
12434;DHT22;6281;49.038;8.372;2024-01-30T01:23:06;2.80;99.90
12434;DHT22;6281;49.038;8.372;2024-01-30T01:25:33;2.70;99.90
12434;DHT22;6281;49.038;8.372;2024-01-30T01:28:00;2.80;99.90
12434;DHT22;6281;49.038;8.372;2024-01-30T01:30:27;2.90;99.90
12434;DHT22;6281;49.038;8.372;2024-01-30T01:32:56;2.80;99.90
12434;DHT22;6281;49.038;8.372;2024-01-30T01:35:26;2.70;99.90
12434;DHT22;6281;49.038;8.372;2024-01-30T01:37:53;2.60;99.90
12434;DHT22;6281;49.038;8.372;2024-01-30T01:40:22;2.50;99.90
12434;DHT22;6281;49.038;8.372;2024-01-30T01:42:50;2.50;99.90
12434;DHT22;6281;49.038;8.372;2024-01-30T01:45:17;2.50;99.90
12434;DHT22;6281;49.038;8.372;2024-01-30T01:47:47;2.60;99.90
12434;DHT22;6281;49.038;8.372;2024-01-30T01:50:24;2.60;99.90
12434;DHT22;6281;49.038;8.372;2024-01-30T01:53:03;2.70;99.90
12434;DHT22;6281;49.038;8.372;2024-01-30T01:57:52;2.70;99.90
12434;DHT22;6281;49.038;8.372;2024-01-30T01:59:14;2.60;99.90
12434;DHT22;6281;49.038;8.372;2024-01-30T02:04:22;2.70;99.90
12434;DHT22;6281;49.038;8.372;2024-01-30T02:05:34;2.70;99.90
12434;DHT22;6281;49.038;8.372;2024-01-30T02:10:32;2.70;99.90
12434;DHT22;6281;49.038;8.372;2024-01-30T02:15:14;2.70;99.90
12434;DHT22;6281;49.038;8.372;2024-01-30T02:31:05;2.70;99.90
12434;DHT22;6281;49.038;8.372;2024-01-30T02:42:43;2.20;99.90
12434;DHT22;6281;49.038;8.372;2024-01-30T02:44:04;2.00;99.90
12434;DHT22;6281;49.038;8.372;2024-01-30T02:47:15;2.00;99.90
12434;DHT22;6281;49.038;8.372;2024-01-30T02:54:03;2.20;99.90
12434;DHT22;6281;49.038;8.372;2024-01-30T02:57:04;2.50;99.90
12434;DHT22;6281;49.038;8.372;2024-01-30T02:59:54;2.60;99.90
12434;DHT22;6281;49.038;8.372;2024-01-30T03:06:24;2.60;99.90
12434;DHT22;6281;49.038;8.372;2024-01-30T03:12:43;2.60;99.90
12434;DHT22;6281;49.038;8.372;2024-01-30T03:15:24;2.40;99.90
12434;DHT22;6281;49.038;8.372;2024-01-30T03:18:54;2.50;99.90
12434;DHT22;6281;49.038;8.372;2024-01-30T03:23:42;2.40;99.90
12434;DHT22;6281;49.038;8.372;2024-01-30T03:31:25;2.60;99.90
12434;DHT22;6281;49.038;8.372;2024-01-30T03:34:32;2.50;99.90
12434;DHT22;6281;49.038;8.372;2024-01-30T03:37:14;2.50;99.90
12434;DHT22;6281;49.038;8.372;2024-01-30T03:40:13;2.50;99.90
12434;DHT22;6281;49.038;8.372;2024-01-30T03:45:42;2.30;99.90
12434;DHT22;6281;49.038;8.372;2024-01-30T03:47:13;2.10;99.90
12434;DHT22;6281;49.038;8.372;2024-01-30T03:50:03;2.00;99.90
12434;DHT22;6281;49.038;8.372;2024-01-30T03:55:03;1.90;99.90
12434;DHT22;6281;49.038;8.372;2024-01-30T04:01:54;1.90;99.90
12434;DHT22;6281;49.038;8.372;2024-01-30T04:25:23;1.90;99.90
12434;DHT22;6281;49.038;8.372;2024-01-30T04:32:03;1.60;99.90
12434;DHT22;6281;49.038;8.372;2024-01-30T04:34:43;1.60;99.90
12434;DHT22;6281;49.038;8.372;2024-01-30T04:37:53;1.40;99.90
12434;DHT22;6281;49.038;8.372;2024-01-30T04:48:13;2.00;99.90
12434;DHT22;6281;49.038;8.372;2024-01-30T04:51:24;2.10;99.90
12434;DHT22;6281;49.038;8.372;2024-01-30T04:54:14;2.10;99.90
12434;DHT22;6281;49.038;8.372;2024-01-30T04:56:54;2.00;99.90
12434;DHT22;6281;49.038;8.372;2024-01-30T04:59:45;1.80;99.90
12434;DHT22;6281;49.038;8.372;2024-01-30T05:02:52;1.80;99.90
12434;DHT22;6281;49.038;8.372;2024-01-30T05:05:52;1.80;99.90
12434;DHT22;6281;49.038;8.372;2024-01-30T05:08:44;1.90;99.90
12434;DHT22;6281;49.038;8.372;2024-01-30T05:11:54;1.90;99.90
12434;DHT22;6281;49.038;8.372;2024-01-30T05:18:35;1.90;99.90
12434;DHT22;6281;49.038;8.372;2024-01-30T05:21:26;2.00;99.90
12434;DHT22;6281;49.038;8.372;2024-01-30T05:24:44;1.90;99.90
12434;DHT22;6281;49.038;8.372;2024-01-30T05:27:53;2.00;99.90
12434;DHT22;6281;49.038;8.372;2024-01-30T05:30:43;1.90;99.90
12434;DHT22;6281;49.038;8.372;2024-01-30T05:33:12;1.60;99.90
12434;DHT22;6281;49.038;8.372;2024-01-30T05:35:39;1.60;99.90
12434;DHT22;6281;49.038;8.372;2024-01-30T05:38:06;1.80;99.90
12434;DHT22;6281;49.038;8.372;2024-01-30T05:40:33;1.90;99.90
12434;DHT22;6281;49.038;8.372;2024-01-30T05:43:07;2.00;99.90
12434;DHT22;6281;49.038;8.372;2024-01-30T05:45:34;1.90;99.90
12434;DHT22;6281;49.038;8.372;2024-01-30T05:48:03;1.80;99.90
12434;DHT22;6281;49.038;8.372;2024-01-30T05:50:30;1.80;99.90
12434;DHT22;6281;49.038;8.372;2024-01-30T05:53:00;1.90;99.90
12434;DHT22;6281;49.038;8.372;2024-01-30T05:55:28;1.80;99.90
12434;DHT22;6281;49.038;8.372;2024-01-30T05:57:58;1.90;99.90
12434;DHT22;6281;49.038;8.372;2024-01-30T06:01:04;1.80;99.90
12434;DHT22;6281;49.038;8.372;2024-01-30T06:06:33;1.70;99.90
12434;DHT22;6281;49.038;8.372;2024-01-30T06:07:45;1.60;99.90
12434;DHT22;6281;49.038;8.372;2024-01-30T06:10:44;1.50;99.90
12434;DHT22;6281;49.038;8.372;2024-01-30T06:22:56;1.50;99.90
12434;DHT22;6281;49.038;8.372;2024-01-30T06:25:23;1.50;99.90
12434;DHT22;6281;49.038;8.372;2024-01-30T06:27:50;1.50;99.90
12434;DHT22;6281;49.038;8.372;2024-01-30T06:30:17;1.60;99.90
12434;DHT22;6281;49.038;8.372;2024-01-30T06:32:43;1.50;99.90
12434;DHT22;6281;49.038;8.372;2024-01-30T06:35:10;1.60;99.90
12434;DHT22;6281;49.038;8.372;2024-01-30T06:37:38;1.70;99.90
12434;DHT22;6281;49.038;8.372;2024-01-30T06:40:07;1.60;99.90
12434;DHT22;6281;49.038;8.372;2024-01-30T06:42:34;1.40;99.90
12434;DHT22;6281;49.038;8.372;2024-01-30T06:45:01;1.50;99.90
12434;DHT22;6281;49.038;8.372;2024-01-30T06:47:28;1.50;99.90
12434;DHT22;6281;49.038;8.372;2024-01-30T06:49:56;1.60;99.90
12434;DHT22;6281;49.038;8.372;2024-01-30T06:52:23;1.70;99.90
12434;DHT22;6281;49.038;8.372;2024-01-30T06:54:50;1.60;99.90
12434;DHT22;6281;49.038;8.372;2024-01-30T06:57:18;1.70;99.90
12434;DHT22;6281;49.038;8.372;2024-01-30T06:59:44;1.70;99.90
12434;DHT22;6281;49.038;8.372;2024-01-30T07:02:11;1.60;99.90
12434;DHT22;6281;49.038;8.372;2024-01-30T07:04:38;1.40;99.90
12434;DHT22;6281;49.038;8.372;2024-01-30T07:07:06;1.50;99.90
12434;DHT22;6281;49.038;8.372;2024-01-30T07:09:38;1.60;99.90
12434;DHT22;6281;49.038;8.372;2024-01-30T07:12:05;1.60;99.90
12434;DHT22;6281;49.038;8.372;2024-01-30T07:14:34;1.70;99.90
12434;DHT22;6281;49.038;8.372;2024-01-30T07:17:01;1.80;99.90
12434;DHT22;6281;49.038;8.372;2024-01-30T07:19:28;1.60;99.90
12434;DHT22;6281;49.038;8.372;2024-01-30T07:21:55;1.60;99.90
12434;DHT22;6281;49.038;8.372;2024-01-30T07:24:21;1.70;99.90
12434;DHT22;6281;49.038;8.372;2024-01-30T07:26:48;1.80;99.90
12434;DHT22;6281;49.038;8.372;2024-01-30T07:29:15;1.90;99.90
12434;DHT22;6281;49.038;8.372;2024-01-30T07:31:43;2.00;99.90
12434;DHT22;6281;49.038;8.372;2024-01-30T07:34:10;2.00;99.90
12434;DHT22;6281;49.038;8.372;2024-01-30T07:36:37;1.80;99.90
12434;DHT22;6281;49.038;8.372;2024-01-30T07:39:03;1.80;99.90
12434;DHT22;6281;49.038;8.372;2024-01-30T07:41:30;1.80;99.90
12434;DHT22;6281;49.038;8.372;2024-01-30T07:43:57;1.80;99.90
12434;DHT22;6281;49.038;8.372;2024-01-30T07:46:24;1.80;99.90
12434;DHT22;6281;49.038;8.372;2024-01-30T07:48:53;1.90;99.90
12434;DHT22;6281;49.038;8.372;2024-01-30T07:51:21;2.00;99.90
12434;DHT22;6281;49.038;8.372;2024-01-30T07:53:48;2.20;99.90
12434;DHT22;6281;49.038;8.372;2024-01-30T07:56:14;2.30;99.90
12434;DHT22;6281;49.038;8.372;2024-01-30T07:58:41;2.40;99.90
12434;DHT22;6281;49.038;8.372;2024-01-30T08:01:08;2.50;99.90
12434;DHT22;6281;49.038;8.372;2024-01-30T08:03:35;2.50;99.90
12434;DHT22;6281;49.038;8.372;2024-01-30T08:06:04;2.50;99.90
12434;DHT22;6281;49.038;8.372;2024-01-30T08:08:32;2.50;99.90
12434;DHT22;6281;49.038;8.372;2024-01-30T08:10:59;2.50;99.90
12434;DHT22;6281;49.038;8.372;2024-01-30T08:13:25;2.60;99.90
12434;DHT22;6281;49.038;8.372;2024-01-30T08:15:52;2.60;99.90
12434;DHT22;6281;49.038;8.372;2024-01-30T08:18:19;2.60;99.90
12434;DHT22;6281;49.038;8.372;2024-01-30T08:20:46;2.70;99.90
12434;DHT22;6281;49.038;8.372;2024-01-30T08:23:14;2.70;99.90
12434;DHT22;6281;49.038;8.372;2024-01-30T08:25:41;2.80;99.90
12434;DHT22;6281;49.038;8.372;2024-01-30T08:28:07;2.70;99.90
12434;DHT22;6281;49.038;8.372;2024-01-30T08:30:34;2.80;99.90
12434;DHT22;6281;49.038;8.372;2024-01-30T08:33:01;2.90;99.90
12434;DHT22;6281;49.038;8.372;2024-01-30T08:35:28;3.00;99.90
12434;DHT22;6281;49.038;8.372;2024-01-30T08:37:57;3.20;99.90
12434;DHT22;6281;49.038;8.372;2024-01-30T08:40:25;3.40;99.90
12434;DHT22;6281;49.038;8.372;2024-01-30T08:42:52;3.40;99.90
12434;DHT22;6281;49.038;8.372;2024-01-30T08:45:18;3.50;99.90
12434;DHT22;6281;49.038;8.372;2024-01-30T08:47:45;3.50;99.90
12434;DHT22;6281;49.038;8.372;2024-01-30T08:50:12;3.60;99.90
12434;DHT22;6281;49.038;8.372;2024-01-30T08:52:39;3.70;99.90
12434;DHT22;6281;49.038;8.372;2024-01-30T08:55:06;3.90;99.90
12434;DHT22;6281;49.038;8.372;2024-01-30T08:57:34;3.80;99.90
12434;DHT22;6281;49.038;8.372;2024-01-30T09:00:01;3.90;99.90
12434;DHT22;6281;49.038;8.372;2024-01-30T09:02:32;4.00;99.90
12434;DHT22;6281;49.038;8.372;2024-01-30T09:04:59;4.10;99.90
12434;DHT22;6281;49.038;8.372;2024-01-30T09:07:25;4.20;99.90
12434;DHT22;6281;49.038;8.372;2024-01-30T09:09:52;4.30;99.90
12434;DHT22;6281;49.038;8.372;2024-01-30T09:12:19;4.40;99.90
12434;DHT22;6281;49.038;8.372;2024-01-30T09:14:47;4.50;99.90
12434;DHT22;6281;49.038;8.372;2024-01-30T09:17:14;4.50;99.90
12434;DHT22;6281;49.038;8.372;2024-01-30T09:19:41;4.70;99.90
12434;DHT22;6281;49.038;8.372;2024-01-30T09:22:08;4.70;99.90
12434;DHT22;6281;49.038;8.372;2024-01-30T09:24:34;4.90;99.90
12434;DHT22;6281;49.038;8.372;2024-01-30T09:27:01;5.10;99.90
12434;DHT22;6281;49.038;8.372;2024-01-30T09:29:28;5.20;99.90
12434;DHT22;6281;49.038;8.372;2024-01-30T09:31:56;5.20;99.90
12434;DHT22;6281;49.038;8.372;2024-01-30T09:34:23;5.30;99.90
12434;DHT22;6281;49.038;8.372;2024-01-30T09:36:50;5.40;99.90
12434;DHT22;6281;49.038;8.372;2024-01-30T09:39:16;5.40;99.90
12434;DHT22;6281;49.038;8.372;2024-01-30T09:41:49;5.60;99.90
12434;DHT22;6281;49.038;8.372;2024-01-30T09:44:16;5.60;99.90
12434;DHT22;6281;49.038;8.372;2024-01-30T09:46:43;5.70;99.90
12434;DHT22;6281;49.038;8.372;2024-01-30T09:49:13;5.80;99.90
12434;DHT22;6281;49.038;8.372;2024-01-30T09:51:40;5.90;99.90
12434;DHT22;6281;49.038;8.372;2024-01-30T09:54:08;6.10;99.90
12434;DHT22;6281;49.038;8.372;2024-01-30T09:56:36;6.00;99.90
12434;DHT22;6281;49.038;8.372;2024-01-30T09:59:03;6.10;99.90
12434;DHT22;6281;49.038;8.372;2024-01-30T10:01:30;6.10;99.90
12434;DHT22;6281;49.038;8.372;2024-01-30T10:03:57;6.00;99.90
12434;DHT22;6281;49.038;8.372;2024-01-30T10:06:26;6.00;99.90
12434;DHT22;6281;49.038;8.372;2024-01-30T10:08:54;6.10;99.90
12434;DHT22;6281;49.038;8.372;2024-01-30T10:11:21;6.10;99.90
12434;DHT22;6281;49.038;8.372;2024-01-30T10:13:47;6.50;99.90
12434;DHT22;6281;49.038;8.372;2024-01-30T10:16:15;6.40;99.90
12434;DHT22;6281;49.038;8.372;2024-01-30T10:18:42;6.20;99.90
12434;DHT22;6281;49.038;8.372;2024-01-30T10:21:09;6.30;99.90
12434;DHT22;6281;49.038;8.372;2024-01-30T10:23:38;6.30;99.90
12434;DHT22;6281;49.038;8.372;2024-01-30T10:26:05;6.40;99.90
12434;DHT22;6281;49.038;8.372;2024-01-30T10:28:33;6.40;99.90
12434;DHT22;6281;49.038;8.372;2024-01-30T10:31:00;6.50;99.90
12434;DHT22;6281;49.038;8.372;2024-01-30T10:33:29;6.20;99.90
12434;DHT22;6281;49.038;8.372;2024-01-30T10:35:59;6.50;99.90
12434;DHT22;6281;49.038;8.372;2024-01-30T10:38:29;6.60;99.90
12434;DHT22;6281;49.038;8.372;2024-01-30T10:40:58;6.70;99.90
12434;DHT22;6281;49.038;8.372;2024-01-30T10:43:31;6.70;99.90
12434;DHT22;6281;49.038;8.372;2024-01-30T10:46:10;7.10;99.90
12434;DHT22;6281;49.038;8.372;2024-01-30T10:48:42;7.00;99.90
12434;DHT22;6281;49.038;8.372;2024-01-30T10:51:10;7.10;99.90
12434;DHT22;6281;49.038;8.372;2024-01-30T10:53:38;7.00;99.90
12434;DHT22;6281;49.038;8.372;2024-01-30T10:56:08;7.20;99.90
12434;DHT22;6281;49.038;8.372;2024-01-30T10:58:37;7.10;99.90
12434;DHT22;6281;49.038;8.372;2024-01-30T11:01:05;7.10;99.90
12434;DHT22;6281;49.038;8.372;2024-01-30T11:03:33;7.40;99.90
12434;DHT22;6281;49.038;8.372;2024-01-30T11:06:02;7.40;99.90
12434;DHT22;6281;49.038;8.372;2024-01-30T11:08:32;7.50;99.90
12434;DHT22;6281;49.038;8.372;2024-01-30T11:10:59;7.70;99.90
12434;DHT22;6281;49.038;8.372;2024-01-30T11:13:31;7.70;99.90
12434;DHT22;6281;49.038;8.372;2024-01-30T11:16:00;8.00;99.90
12434;DHT22;6281;49.038;8.372;2024-01-30T11:18:30;9.40;99.90
12434;DHT22;6281;49.038;8.372;2024-01-30T11:20:57;10.00;99.90
12434;DHT22;6281;49.038;8.372;2024-01-30T11:23:26;10.00;99.90
12434;DHT22;6281;49.038;8.372;2024-01-30T11:25:54;8.60;99.90
12434;DHT22;6281;49.038;8.372;2024-01-30T11:28:21;8.60;99.90
12434;DHT22;6281;49.038;8.372;2024-01-30T11:30:50;8.40;99.90
12434;DHT22;6281;49.038;8.372;2024-01-30T11:33:27;8.40;99.90
12434;DHT22;6281;49.038;8.372;2024-01-30T11:35:57;8.40;99.90
12434;DHT22;6281;49.038;8.372;2024-01-30T11:38:26;8.50;99.90
12434;DHT22;6281;49.038;8.372;2024-01-30T11:40:54;8.40;99.90
12434;DHT22;6281;49.038;8.372;2024-01-30T11:43:21;8.30;99.90
12434;DHT22;6281;49.038;8.372;2024-01-30T11:45:49;8.40;99.90
12434;DHT22;6281;49.038;8.372;2024-01-30T11:48:16;8.40;99.90
12434;DHT22;6281;49.038;8.372;2024-01-30T11:50:43;8.40;99.90
12434;DHT22;6281;49.038;8.372;2024-01-30T11:53:11;8.70;99.90
12434;DHT22;6281;49.038;8.372;2024-01-30T11:55:38;8.50;99.90
12434;DHT22;6281;49.038;8.372;2024-01-30T11:58:05;8.60;99.90
12434;DHT22;6281;49.038;8.372;2024-01-30T12:00:32;8.90;99.90
12434;DHT22;6281;49.038;8.372;2024-01-30T12:03:01;9.00;99.90
12434;DHT22;6281;49.038;8.372;2024-01-30T12:05:29;9.30;99.90
12434;DHT22;6281;49.038;8.372;2024-01-30T12:07:55;9.10;99.90
12434;DHT22;6281;49.038;8.372;2024-01-30T12:10:24;9.40;99.90
12434;DHT22;6281;49.038;8.372;2024-01-30T12:12:52;9.50;99.90
12434;DHT22;6281;49.038;8.372;2024-01-30T12:15:20;10.60;99.90
12434;DHT22;6281;49.038;8.372;2024-01-30T12:17:48;11.50;99.90
12434;DHT22;6281;49.038;8.372;2024-01-30T12:20:18;10.40;99.90
12434;DHT22;6281;49.038;8.372;2024-01-30T12:22:47;10.40;99.90
12434;DHT22;6281;49.038;8.372;2024-01-30T12:25:16;10.30;99.90
12434;DHT22;6281;49.038;8.372;2024-01-30T12:27:44;9.80;99.90
12434;DHT22;6281;49.038;8.372;2024-01-30T12:30:12;10.20;99.90
12434;DHT22;6281;49.038;8.372;2024-01-30T12:32:41;10.60;99.90
12434;DHT22;6281;49.038;8.372;2024-01-30T12:35:10;10.40;99.90
12434;DHT22;6281;49.038;8.372;2024-01-30T12:37:38;10.70;99.90
12434;DHT22;6281;49.038;8.372;2024-01-30T12:40:06;11.10;99.90
12434;DHT22;6281;49.038;8.372;2024-01-30T12:42:33;11.30;99.90
12434;DHT22;6281;49.038;8.372;2024-01-30T12:45:02;10.80;99.90
12434;DHT22;6281;49.038;8.372;2024-01-30T12:47:29;10.60;99.90
12434;DHT22;6281;49.038;8.372;2024-01-30T12:49:55;10.70;99.90
12434;DHT22;6281;49.038;8.372;2024-01-30T12:52:23;10.40;99.90
12434;DHT22;6281;49.038;8.372;2024-01-30T12:54:52;10.70;99.90
12434;DHT22;6281;49.038;8.372;2024-01-30T12:57:19;10.60;99.90
12434;DHT22;6281;49.038;8.372;2024-01-30T12:59:47;11.00;99.90
12434;DHT22;6281;49.038;8.372;2024-01-30T13:02:14;11.00;99.90
12434;DHT22;6281;49.038;8.372;2024-01-30T13:04:41;10.90;99.90
12434;DHT22;6281;49.038;8.372;2024-01-30T13:07:08;11.20;99.90
12434;DHT22;6281;49.038;8.372;2024-01-30T13:09:36;11.70;99.90
12434;DHT22;6281;49.038;8.372;2024-01-30T13:12:05;11.50;99.90
12434;DHT22;6281;49.038;8.372;2024-01-30T13:14:32;11.80;99.90
12434;DHT22;6281;49.038;8.372;2024-01-30T13:16:59;11.80;99.90
12434;DHT22;6281;49.038;8.372;2024-01-30T13:19:26;11.40;99.90
12434;DHT22;6281;49.038;8.372;2024-01-30T13:21:53;11.20;99.90
12434;DHT22;6281;49.038;8.372;2024-01-30T13:24:20;11.00;99.90
12434;DHT22;6281;49.038;8.372;2024-01-30T13:26:48;11.00;99.90
12434;DHT22;6281;49.038;8.372;2024-01-30T13:29:16;10.90;99.90
12434;DHT22;6281;49.038;8.372;2024-01-30T13:31:43;10.80;99.90
12434;DHT22;6281;49.038;8.372;2024-01-30T13:34:12;10.90;99.90
12434;DHT22;6281;49.038;8.372;2024-01-30T13:36:39;10.80;99.90
12434;DHT22;6281;49.038;8.372;2024-01-30T13:39:08;10.80;99.90
12434;DHT22;6281;49.038;8.372;2024-01-30T13:41:35;10.90;99.90
12434;DHT22;6281;49.038;8.372;2024-01-30T13:44:02;10.90;99.90
12434;DHT22;6281;49.038;8.372;2024-01-30T13:46:31;10.90;99.90
12434;DHT22;6281;49.038;8.372;2024-01-30T13:48:58;10.80;99.90
12434;DHT22;6281;49.038;8.372;2024-01-30T13:51:25;10.90;99.90
12434;DHT22;6281;49.038;8.372;2024-01-30T13:53:52;11.00;99.90
12434;DHT22;6281;49.038;8.372;2024-01-30T13:56:19;11.00;99.90
12434;DHT22;6281;49.038;8.372;2024-01-30T13:58:47;11.20;99.90
12434;DHT22;6281;49.038;8.372;2024-01-30T14:01:14;11.10;99.90
12434;DHT22;6281;49.038;8.372;2024-01-30T14:03:42;11.10;99.90
12434;DHT22;6281;49.038;8.372;2024-01-30T14:06:10;11.00;99.90
12434;DHT22;6281;49.038;8.372;2024-01-30T14:08:37;11.00;99.90
12434;DHT22;6281;49.038;8.372;2024-01-30T14:11:04;11.00;99.90
12434;DHT22;6281;49.038;8.372;2024-01-30T14:13:31;11.00;99.90
12434;DHT22;6281;49.038;8.372;2024-01-30T14:15:58;11.00;99.90
12434;DHT22;6281;49.038;8.372;2024-01-30T14:18:25;11.10;99.90
12434;DHT22;6281;49.038;8.372;2024-01-30T14:20:53;11.00;99.90
12434;DHT22;6281;49.038;8.372;2024-01-30T14:23:20;11.10;99.90
12434;DHT22;6281;49.038;8.372;2024-01-30T14:25:47;11.20;99.90
12434;DHT22;6281;49.038;8.372;2024-01-30T14:28:14;11.10;99.90
12434;DHT22;6281;49.038;8.372;2024-01-30T14:30:41;11.10;99.90
12434;DHT22;6281;49.038;8.372;2024-01-30T14:33:08;11.10;99.90
12434;DHT22;6281;49.038;8.372;2024-01-30T14:35:35;11.00;99.90
12434;DHT22;6281;49.038;8.372;2024-01-30T14:38:04;11.00;99.90
12434;DHT22;6281;49.038;8.372;2024-01-30T14:40:33;11.00;99.90
12434;DHT22;6281;49.038;8.372;2024-01-30T14:42:59;10.90;99.90
12434;DHT22;6281;49.038;8.372;2024-01-30T14:45:26;10.90;99.90
12434;DHT22;6281;49.038;8.372;2024-01-30T14:47:53;10.90;99.90
12434;DHT22;6281;49.038;8.372;2024-01-30T14:50:21;10.90;99.90
12434;DHT22;6281;49.038;8.372;2024-01-30T14:52:48;10.80;99.90
12434;DHT22;6281;49.038;8.372;2024-01-30T14:55:17;10.80;99.90
12434;DHT22;6281;49.038;8.372;2024-01-30T14:57:44;10.80;99.90
12434;DHT22;6281;49.038;8.372;2024-01-30T15:00:12;10.70;99.90
12434;DHT22;6281;49.038;8.372;2024-01-30T15:02:41;10.80;99.90
12434;DHT22;6281;49.038;8.372;2024-01-30T15:05:08;10.70;99.90
12434;DHT22;6281;49.038;8.372;2024-01-30T15:07:36;10.70;99.90
12434;DHT22;6281;49.038;8.372;2024-01-30T15:10:04;10.70;99.90
12434;DHT22;6281;49.038;8.372;2024-01-30T15:12:32;10.70;99.90
12434;DHT22;6281;49.038;8.372;2024-01-30T15:14:59;10.60;99.90
12434;DHT22;6281;49.038;8.372;2024-01-30T15:17:26;10.60;99.90
12434;DHT22;6281;49.038;8.372;2024-01-30T15:19:53;10.60;99.90
12434;DHT22;6281;49.038;8.372;2024-01-30T15:22:20;10.60;99.90
12434;DHT22;6281;49.038;8.372;2024-01-30T15:24:47;10.50;99.90
12434;DHT22;6281;49.038;8.372;2024-01-30T15:27:14;10.40;99.90
12434;DHT22;6281;49.038;8.372;2024-01-30T15:29:42;10.50;99.90
12434;DHT22;6281;49.038;8.372;2024-01-30T15:32:09;10.40;99.90
12434;DHT22;6281;49.038;8.372;2024-01-30T15:34:36;10.40;99.90
12434;DHT22;6281;49.038;8.372;2024-01-30T15:37:04;10.40;99.90
12434;DHT22;6281;49.038;8.372;2024-01-30T15:39:31;10.30;99.90
12434;DHT22;6281;49.038;8.372;2024-01-30T15:41:58;10.30;99.90
12434;DHT22;6281;49.038;8.372;2024-01-30T15:44:27;10.30;99.90
12434;DHT22;6281;49.038;8.372;2024-01-30T15:46:57;10.30;99.90
12434;DHT22;6281;49.038;8.372;2024-01-30T15:49:25;10.30;99.90
12434;DHT22;6281;49.038;8.372;2024-01-30T15:51:51;10.30;99.90
12434;DHT22;6281;49.038;8.372;2024-01-30T15:54:18;10.30;99.90
12434;DHT22;6281;49.038;8.372;2024-01-30T15:56:46;10.30;99.90
12434;DHT22;6281;49.038;8.372;2024-01-30T15:59:13;10.20;99.90
12434;DHT22;6281;49.038;8.372;2024-01-30T16:01:40;10.20;99.90
12434;DHT22;6281;49.038;8.372;2024-01-30T16:04:08;10.20;99.90
12434;DHT22;6281;49.038;8.372;2024-01-30T16:06:35;10.10;99.90
12434;DHT22;6281;49.038;8.372;2024-01-30T16:09:02;10.10;99.90
12434;DHT22;6281;49.038;8.372;2024-01-30T16:11:29;10.10;99.90
12434;DHT22;6281;49.038;8.372;2024-01-30T16:13:57;10.00;99.90
12434;DHT22;6281;49.038;8.372;2024-01-30T16:16:24;10.10;99.90
12434;DHT22;6281;49.038;8.372;2024-01-30T16:18:51;10.00;99.90
12434;DHT22;6281;49.038;8.372;2024-01-30T16:21:20;10.00;99.90
12434;DHT22;6281;49.038;8.372;2024-01-30T16:23:47;10.00;99.90
12434;DHT22;6281;49.038;8.372;2024-01-30T16:26:14;10.00;99.90
12434;DHT22;6281;49.038;8.372;2024-01-30T16:28:41;10.00;99.90
12434;DHT22;6281;49.038;8.372;2024-01-30T16:31:08;10.00;99.90
12434;DHT22;6281;49.038;8.372;2024-01-30T16:33:35;10.00;99.90
12434;DHT22;6281;49.038;8.372;2024-01-30T16:36:02;10.00;99.90
12434;DHT22;6281;49.038;8.372;2024-01-30T16:38:30;10.00;99.90
12434;DHT22;6281;49.038;8.372;2024-01-30T16:40:57;10.00;99.90
12434;DHT22;6281;49.038;8.372;2024-01-30T16:43:24;10.00;99.90
12434;DHT22;6281;49.038;8.372;2024-01-30T16:45:51;10.00;99.90
12434;DHT22;6281;49.038;8.372;2024-01-30T16:48:18;10.00;99.90
12434;DHT22;6281;49.038;8.372;2024-01-30T16:50:48;10.00;99.90
12434;DHT22;6281;49.038;8.372;2024-01-30T16:53:15;10.10;99.90
12434;DHT22;6281;49.038;8.372;2024-01-30T16:55:43;10.20;99.90
12434;DHT22;6281;49.038;8.372;2024-01-30T16:58:10;10.30;99.90
12434;DHT22;6281;49.038;8.372;2024-01-30T17:00:37;10.20;99.90
12434;DHT22;6281;49.038;8.372;2024-01-30T17:03:04;10.20;99.90
12434;DHT22;6281;49.038;8.372;2024-01-30T17:05:31;10.20;99.90
12434;DHT22;6281;49.038;8.372;2024-01-30T17:07:58;10.20;99.90
12434;DHT22;6281;49.038;8.372;2024-01-30T17:10:26;10.20;99.90
12434;DHT22;6281;49.038;8.372;2024-01-30T17:12:54;10.20;99.90
12434;DHT22;6281;49.038;8.372;2024-01-30T17:15:21;10.20;99.90
12434;DHT22;6281;49.038;8.372;2024-01-30T17:17:48;10.10;99.90
12434;DHT22;6281;49.038;8.372;2024-01-30T17:20:15;10.10;99.90
12434;DHT22;6281;49.038;8.372;2024-01-30T17:22:42;10.10;99.90
12434;DHT22;6281;49.038;8.372;2024-01-30T17:25:09;10.10;99.90
12434;DHT22;6281;49.038;8.372;2024-01-30T17:27:36;10.10;99.90
12434;DHT22;6281;49.038;8.372;2024-01-30T17:30:06;10.00;99.90
12434;DHT22;6281;49.038;8.372;2024-01-30T17:32:33;9.90;99.90
12434;DHT22;6281;49.038;8.372;2024-01-30T17:35:00;9.80;99.90
12434;DHT22;6281;49.038;8.372;2024-01-30T17:37:27;9.70;99.90
12434;DHT22;6281;49.038;8.372;2024-01-30T17:39:54;9.60;99.90
12434;DHT22;6281;49.038;8.372;2024-01-30T17:42:21;9.70;99.90
12434;DHT22;6281;49.038;8.372;2024-01-30T17:44:49;9.60;99.90
12434;DHT22;6281;49.038;8.372;2024-01-30T17:47:17;9.50;99.90
12434;DHT22;6281;49.038;8.372;2024-01-30T17:49:44;9.30;99.90
12434;DHT22;6281;49.038;8.372;2024-01-30T17:52:11;9.30;99.90
12434;DHT22;6281;49.038;8.372;2024-01-30T17:54:38;9.20;99.90
12434;DHT22;6281;49.038;8.372;2024-01-30T17:57:05;9.20;99.90
12434;DHT22;6281;49.038;8.372;2024-01-30T17:59:32;9.10;99.90